Flight Track Log - Related Links

Times and Time Zones

All times are in EDT time to prevent confusion due to time zone crossing. See the ASQ5685 flight status page for this flight to view local times or setup timezone preferences in your user account.

Time Position Orientation Groundspeed Altitude Reporting Facility
EDT Latitude Longitude Course Direction KTS MPH feet Rate Location/Type
Tue 02:42:00 PM 44.0924 -73.2897 196° South  Level FlightAware Approximate
Tue 02:42:14 PM 44.3028 -73.1653 195° South 231 266 8,400  Level Boston Center
Tue 02:43:00 PM 43.9991 -73.3271 196° South  Level FlightAware Approximate
Tue 02:43:14 PM 44.2233 -73.1992 197° South 265 305 10,900  Level Boston Center
Tue 02:44:00 PM 43.9057 -73.3644 196° South  Level FlightAware Approximate
Tue 02:44:14 PM 44.1439 -73.2328 197° South 291 335 13,300  Level Boston Center
Tue 02:45:00 PM 43.8119 -73.3993 195° South  Level FlightAware Approximate
Tue 02:45:26 PM 44.0458 -73.2719 196° South 304 350 16,000  Level Boston Center
Tue 02:46:00 PM 43.7180 -73.4339 195° South  Level FlightAware Approximate
Tue 02:46:26 PM 43.9642 -73.3083 198° South 304 350 17,800  Level Boston Center
Tue 02:47:00 PM 43.6242 -73.4684 195° South  Level FlightAware Approximate
Tue 02:47:26 PM 43.8806 -73.3444 197° South 310 357 19,400  Level Boston Center
Tue 02:48:26 PM 43.7928 -73.3778 195° South 320 368 20,800 1,250 Climbing Boston Center
Tue 02:49:26 PM 43.7175 -73.4111 198° South 341 392 21,900 1,350 Climbing Boston Center
Tue 02:50:26 PM 43.6131 -73.4522 196° South 352 405 23,500 1,050 Climbing Boston Center
Tue 02:51:26 PM 43.5147 -73.4908 196° South 363 418 24,000 250 Climbing Boston Center
Tue 02:52:26 PM 43.4100 -73.5347 197° South 375 432 24,000 200 Level Boston Center
Tue 02:53:26 PM 43.3033 -73.5783 197° South 387 445 24,400 800 Climbing Boston Center
Tue 02:54:26 PM 43.1989 -73.6192 196° South 397 457 25,600 1,200 Climbing Boston Center
Tue 02:55:26 PM 43.0817 -73.6681 197° South 402 463 26,800 1,200 Climbing Boston Center
Tue 02:56:26 PM 42.9769 -73.7114 197° South 402 463 28,000 1,200 Climbing Boston Center
Tue 02:57:26 PM 42.8764 -73.7547 198° South 402 463 29,200 1,000 Climbing Boston Center
Tue 02:58:26 PM 42.7717 -73.7950 196° South 397 457 30,000 400 Climbing Boston Center
Tue 02:59:26 PM 42.6669 -73.8406 198° South 397 457 30,000  Level Boston Center
Tue 03:00:26 PM 42.5661 -73.8892 200° South 397 457 30,000  Level Boston Center
Tue 03:01:26 PM 42.4656 -73.9344 198° South 392 451 30,000  Level Boston Center
Tue 03:02:26 PM 42.3650 -73.9800 199° South 386 444 30,000  Level Boston Center
Tue 03:03:26 PM 42.2644 -74.0225 197° South 386 444 30,000  Level Boston Center
Tue 03:04:26 PM 42.1661 -74.0422 188° South 386 444 30,000  Level Boston Center
Tue 03:05:26 PM 42.0597 -74.0481 182° South 386 444 30,000  Level Boston Center
Tue 03:06:26 PM 41.9592 -74.0900 197° South 386 444 30,000  Level Boston Center
Tue 03:07:26 PM 41.8603 -74.1378 200° South 386 444 30,000  Level Boston Center
Tue 03:09:03 PM 41.6986 -74.2133 199° South 387 445 30,000  Level New York Center
Tue 03:10:04 PM 41.5972 -74.2606 199° South 387 445 30,000  Level New York Center
Tue 03:11:04 PM 41.5064 -74.3058 200° South 376 433 30,000  Level New York Center
Tue 03:12:05 PM 41.4050 -74.3558 200° South 376 433 30,000  Level New York Center
Tue 03:13:04 PM 41.2911 -74.4047 198° South 384 442 30,000  Level New York Center
Tue 03:14:05 PM 41.1939 -74.4519 200° South 389 448 30,000 -443 Level New York Center
Tue 03:15:06 PM 41.0944 -74.5017 201° Southwest 389 448 29,100 -908 Descending New York Center
Tue 03:16:04 PM 40.9908 -74.5481 199° South 389 448 28,200 -559 Descending New York Center
Tue 03:17:04 PM 40.8989 -74.6200 211° Southwest 395 455 28,000 -99 Descending New York Center
Tue 03:18:05 PM 40.8469 -74.7403 240° Southwest 364 419 28,000  Level New York Center
Tue 03:19:06 PM 40.7931 -74.8525 238° Southwest 370 426 28,000  Level New York Center
Tue 03:20:04 PM 40.7411 -74.9697 240° Southwest 370 426 28,000  Level New York Center
Tue 03:21:05 PM 40.6953 -75.0875 243° Southwest 370 426 28,000 -148 Level New York Center
Tue 03:22:06 PM 40.6572 -75.2136 248° West 370 426 27,700 -545 Descending New York Center
Tue 03:23:06 PM 40.6169 -75.3422 248° West 376 433 26,900 -807 Descending New York Center
Tue 03:24:05 PM 40.5661 -75.4644 241° Southwest 382 440 26,100 -800 Descending New York Center
Tue 03:25:06 PM 40.5053 -75.5806 235° Southwest 387 445 25,300 -857 Descending New York Center
Tue 03:26:04 PM 40.4422 -75.6961 234° Southwest 392 451 24,400 -1,210 Descending New York Center
Tue 03:27:05 PM 40.3831 -75.8092 236° Southwest 392 451 22,900 -1,339 Descending New York Center
Tue 03:28:05 PM 40.3400 -75.8903 235° Southwest 376 433 21,700 -1,388 Descending New York Center
Tue 03:29:06 PM 40.2808 -76.0031 236° Southwest 357 411 20,100 -1,613 Descending New York Center
Tue 03:30:04 PM 40.2369 -76.1003 239° Southwest 322 371 18,500 -1,462 Descending New York Center
Tue 03:31:05 PM 40.1886 -76.2025 238° Southwest 314 361 17,200 -1,377 Descending New York Center
Tue 03:32:06 PM 40.1425 -76.2967 237° Southwest 309 356 15,700 -841 Descending New York Center
Tue 03:33:42 PM 40.0500 -76.4833 237° Southwest 341 392 15,000 -278 Descending Potomac TRACON
Tue 03:34:37 PM 40.0167 -76.5667 242° Southwest 341 392 15,000  Level Potomac TRACON
Tue 03:35:43 PM 39.9500 -76.6833 233° Southwest 339 390 15,000  Level Potomac TRACON
Tue 03:36:43 PM 39.9000 -76.7833 237° Southwest 339 390 15,000  Level Potomac TRACON
Tue 03:37:38 PM 39.8667 -76.8667 242° Southwest 336 387 15,000 -446 Level Potomac TRACON
Tue 03:38:44 PM 39.8000 -76.9833 233° Southwest 302 348 14,100 -1,000 Descending Potomac TRACON
Tue 03:39:44 PM 39.7667 -77.0667 243° Southwest 300 345 12,900 -1,148 Descending Potomac TRACON
Tue 03:40:39 PM 39.7167 -77.1500 232° Southwest 303 349 11,900 -1,190 Descending Potomac TRACON
Tue 03:41:45 PM 39.6667 -77.2500 237° Southwest 290 334 10,500 -1,091 Descending Potomac TRACON
Tue 03:42:40 PM 39.6333 -77.3333 243° Southwest 287 330 9,700 -991 Descending Potomac TRACON
Tue 03:43:40 PM 39.6000 -77.4167 243° Southwest 289 333 8,600 -905 Descending Potomac TRACON
Tue 03:44:46 PM 39.5500 -77.4833 226° Southwest 238 274 7,800 -900 Descending Potomac TRACON
Tue 03:45:40 PM 39.5000 -77.4667 166° South 201 231 6,800 -1,526 Descending Potomac TRACON
Tue 03:46:40 PM 39.4667 -77.4000 123° Southeast 198 228 4,900 -1,400 Descending Potomac TRACON
Tue 03:47:40 PM 39.4167 -77.4167 194° South 207 238 4,000 -450 Descending Potomac TRACON
Tue 03:48:40 PM 39.3667 -77.4333 194° South 199 229 4,000 -347 Level Potomac TRACON
Tue 03:49:41 PM 39.3000 -77.4333 180° South 192 221 3,300 -496 Descending Potomac TRACON
Tue 03:50:41 PM 39.2500 -77.4333 180° South 195 224 3,000 -100 Descending Potomac TRACON
Tue 03:51:41 PM 39.2000 -77.4333 180° South 178 205 3,100  Climbing Potomac TRACON
Tue 03:52:41 PM 39.1500 -77.4333 180° South 173 199 3,000 -48 Descending Potomac TRACON
Tue 03:53:47 PM 39.1000 -77.4333 180° South 177 204 3,000  Level Potomac TRACON

Login

Don't have an account? Register now (free) for customized features, flight alerts, and more!